Latest Weather Observations for Red Rocks Point

IDW60801

Issued at 4:02 pm WST Wednesday 2 September 2015 (issued every 30 minutes, with the page automatically refreshed every 10 minutes)

About weather observations | Map of weather stations | Latest weather observations for WA | Other Formats
Station Details ID: 011053 Name: RED ROCKS POINT Lat: -32.20 Lon: 127.53 Height: 3.1 m
Data from the previous 72 hours. | See also: Recent months at Red Rocks Point
Date/Time
WST
Temp
°C
App
Temp
°C
Dew
Point
Rel
Hum
%
Delta-T
°C
Wind Press
QNH
hPa
Press
MSL
hPa
Rain
since 9 am
mm
Dir
 
Spd
km/h
Gust
km/h
Spd
kts
Gust
kts
02/04:00pm 15.2 11.5 9.6 69 2.9 SW 19 30 10 16 1023.1 - 0.0
02/03:30pm 15.5 11.9 10.5 72 2.6 SW 20 30 11 16 1022.9 - 0.0
02/03:00pm 14.7 10.0 9.1 69 2.8 SW 24 32 13 17 1022.6 1022.6 0.0
02/02:30pm 15.0 10.3 9.1 68 3.0 SW 24 35 13 19 1022.3 - 0.0
02/02:00pm 15.7 11.2 10.2 70 2.9 SW 24 33 13 18 1022.1 - 0.0
02/01:30pm 14.7 9.1 8.9 68 2.9 SW 28 37 15 20 1022.0 - 0.0
02/01:00pm 15.8 10.5 9.7 67 3.2 SW 28 37 15 20 1021.9 - 0.0
02/12:30pm 16.2 11.3 10.1 67 3.2 SSW 26 37 14 20 1021.9 - 0.0
02/12:00pm 16.4 11.1 9.8 65 3.4 SW 28 39 15 21 1022.0 1022.0 0.0
02/11:30am 16.1 10.7 9.5 65 3.4 SW 28 41 15 22 1022.3 - 0.0
02/11:00am 16.1 10.4 9.8 66 3.3 SW 30 44 16 24 1022.3 - 0.0
02/10:30am 16.4 11.7 10.5 68 3.1 SW 26 39 14 21 1022.3 - 0.0
02/10:00am 15.8 10.1 9.9 68 3.1 SW 30 43 16 23 1022.3 - 0.0
02/09:30am 14.9 9.2 9.7 71 2.7 SW 30 48 16 26 1022.1 - 0.0
02/09:00am 15.2 9.1 9.6 69 2.9 SW 32 43 17 23 1021.8 1021.8 8.0
02/08:30am 14.5 9.2 9.7 73 2.5 SW 28 41 15 22 1021.5 - 8.0
02/08:00am 14.7 9.8 10.1 74 2.4 SW 26 39 14 21 1020.9 - 8.0
02/07:30am 14.1 8.4 9.7 75 2.3 SW 30 46 16 25 1020.2 - 8.0
02/07:00am 13.2 7.8 9.6 79 1.8 SW 28 41 15 22 1019.6 - 8.0
02/06:30am 13.0 6.8 9.4 79 1.8 SW 32 56 17 30 1019.3 - 8.0
02/06:29am 13.1 7.3 9.5 79 1.8 SW 30 54 16 29 1019.2 - 8.0
02/06:00am 13.1 8.1 9.4 78 1.9 SW 26 39 14 21 1018.5 1018.5 8.0
02/05:47am 12.7 7.3 9.5 81 1.6 SSW 28 48 15 26 1018.3 - 8.0
02/05:30am 13.2 6.8 9.3 77 2.0 SW 33 48 18 26 1018.2 - 8.0
02/05:00am 12.9 7.0 9.0 77 2.0 SSW 30 43 16 23 1017.6 - 7.8
02/04:30am 13.2 7.4 7.9 70 2.6 SW 28 41 15 22 1017.0 - 7.8
02/04:00am 12.9 7.3 8.6 75 2.1 SW 28 39 15 21 1016.7 - 7.8
02/03:43am 13.4 7.4 8.7 73 2.4 SW 30 48 16 26 1016.4 - 7.8
02/03:30am 12.9 6.8 8.2 73 2.3 SSW 30 44 16 24 1016.1 - 7.8
02/03:00am 13.0 7.0 8.5 74 2.2 SSW 30 41 16 22 1016.1 1016.1 7.8
02/02:30am 13.1 6.5 7.8 70 2.6 SSW 32 44 17 24 1015.7 - 7.8
02/02:00am 12.6 5.8 7.1 69 2.7 SSW 32 43 17 23 1015.6 - 7.8
02/01:32am 12.9 5.3 7.4 69 2.7 SSW 37 57 20 31 1015.5 - 7.8
02/01:30am 12.8 5.6 7.5 70 2.6 SSW 35 52 19 28 1015.5 - 7.8
02/01:00am 12.8 6.1 8.1 73 2.3 SSW 33 50 18 27 1015.3 - 7.8
02/12:42am 12.5 5.6 7.2 70 2.6 SW 33 52 18 28 1015.1 - 7.8
02/12:30am 12.8 5.6 7.7 71 2.5 SSW 35 50 19 27 1015.1 - 7.8
02/12:00am 12.3 4.4 7.8 74 2.2 SW 39 57 21 31 1014.8 1014.8 7.8
 
Date/Time
WST
Temp
°C
App
Temp
°C
Dew
Point
Rel
Hum
%
Delta-T
°C
Wind Press
QNH
hPa
Press
MSL
hPa
Rain
since 9 am
mm
Dir
 
Spd
km/h
Gust
km/h
Spd
kts
Gust
kts
01/11:30pm 12.3 5.4 10.2 87 1.1 SSW 37 56 20 30 1014.3 - 7.8
01/11:02pm 12.5 7.0 10.4 87 1.1 SW 30 50 16 27 1014.0 - 7.8
01/11:00pm 12.7 7.2 10.6 87 1.1 SW 30 43 16 23 1013.9 - 7.8
01/10:30pm 12.4 6.0 10.6 89 0.9 SSW 35 48 19 26 1013.7 - 7.8
01/10:03pm 12.3 6.3 10.9 91 0.7 SW 33 57 18 31 1013.3 - 7.8
01/10:00pm 12.5 6.6 11.1 91 0.7 SW 33 48 18 26 1013.1 - 7.8
01/09:15pm 11.9 6.8 10.5 91 0.7 WSW 28 46 15 25 1012.7 - 7.6
01/09:00pm 11.8 7.0 10.4 91 0.7 WSW 26 41 14 22 1012.3 1012.3 7.2
01/08:32pm 11.8 6.7 10.5 92 0.7 W 28 46 15 25 1011.8 - 7.2
01/08:30pm 11.5 6.3 10.2 92 0.7 W 28 43 15 23 1011.7 - 7.2
01/08:00pm 11.1 5.0 9.7 91 0.7 W 32 54 17 29 1011.0 - 6.8
01/07:30pm 10.6 5.2 9.4 92 0.6 W 28 50 15 27 1010.6 - 4.8
01/07:00pm 10.0 5.5 8.6 91 0.7 W 22 46 12 25 1010.5 - 4.6
01/06:32pm 9.5 1.3 8.1 91 0.7 W 41 59 22 32 1010.6 - 4.0
01/06:30pm 9.5 5.3 8.1 91 0.7 WNW 20 54 11 29 1010.6 - 4.0
01/06:00pm 9.7 5.4 8.0 89 0.8 WNW 20 33 11 18 1010.0 1010.0 1.2
01/05:30pm 10.1 4.9 7.3 83 1.3 WNW 24 39 13 21 1009.8 - 0.8
01/05:00pm 11.1 6.3 7.4 78 1.8 WNW 22 35 12 19 1009.3 - 0.4
01/04:30pm 11.2 6.0 7.3 77 1.9 W 24 39 13 21 1009.0 - 0.4
01/04:00pm 12.3 5.3 6.8 69 2.6 W 33 54 18 29 1008.8 - 0.4
01/03:30pm 13.0 4.7 6.1 63 3.3 W 39 61 21 33 1008.5 - 0.4
01/03:00pm 12.0 5.1 7.1 72 2.4 W 33 54 18 29 1008.4 1008.4 0.4
01/02:33pm 13.4 5.4 5.6 59 3.7 W 37 61 20 33 1008.0 - 0.4
01/02:30pm 13.5 5.9 5.9 60 3.6 W 35 52 19 28 1007.9 - 0.4
01/02:00pm 13.4 5.9 6.5 63 3.3 W 35 57 19 31 1007.9 - 0.4
01/01:30pm 14.0 6.5 6.4 60 3.6 WSW 35 54 19 29 1007.6 - 0.4
01/01:00pm 13.9 6.8 6.3 60 3.6 W 33 54 18 29 1007.2 - 0.4
01/12:30pm 11.8 5.3 8.1 78 1.8 W 32 54 17 29 1007.5 - 0.4
01/12:08pm 11.8 6.2 8.6 81 1.6 W 28 46 15 25 1007.6 - 0.2
01/12:00pm 11.4 6.4 8.1 80 1.6 W 24 43 13 23 1007.7 1007.7 0.2
01/11:30am 12.1 6.0 6.6 69 2.6 W 28 41 15 22 1008.0 - 0.0
01/11:00am 12.5 6.2 5.7 63 3.2 W 28 48 15 26 1008.1 - 0.0
01/10:33am 13.2 6.9 5.9 61 3.4 W 28 46 15 25 1008.2 - 0.0
01/10:30am 12.8 6.5 5.5 61 3.4 W 28 43 15 23 1008.2 - 0.0
01/10:02am 12.3 6.0 5.5 63 3.2 WNW 28 46 15 25 1008.3 - 0.0
01/10:00am 12.3 6.4 5.7 64 3.1 WNW 26 46 14 25 1008.4 - 0.0
01/09:34am 11.4 5.1 5.5 67 2.7 W 28 50 15 27 1008.5 - 0.0
01/09:30am 11.5 5.6 6.0 69 2.6 W 26 43 14 23 1008.6 - 0.0
01/09:02am 11.2 4.7 6.3 72 2.3 WNW 30 48 16 26 1008.4 - 0.0
01/09:00am 11.7 5.7 7.2 74 2.2 WNW 28 44 15 24 1008.4 1008.4 3.8
01/08:30am 11.3 7.1 9.6 89 0.9 WNW 22 37 12 20 1008.3 - 3.8
01/08:00am 10.4 6.5 9.3 93 0.5 WNW 20 33 11 18 1008.3 - 3.8
01/07:30am 9.9 6.5 9.0 94 0.4 WNW 17 32 9 17 1008.1 - 3.8
01/07:00am 9.6 6.1 8.7 94 0.4 NW 17 28 9 15 1007.8 - 3.8
01/06:30am 9.1 5.5 8.3 95 0.4 WNW 17 22 9 12 1007.6 - 3.8
01/06:00am 9.1 5.9 8.3 95 0.4 WNW 15 22 8 12 1007.5 1007.5 3.8
01/05:30am 8.9 6.4 8.1 95 0.4 NW 11 15 6 8 1007.2 - 3.8
01/05:00am 8.5 5.9 7.6 94 0.4 N 11 13 6 7 1007.0 - 3.8
01/04:30am 8.6 6.4 7.7 94 0.4 N 9 11 5 6 1006.9 - 3.8
01/04:00am 8.9 6.7 8.0 94 0.4 N 9 11 5 6 1007.3 - 3.8
01/03:30am 8.9 6.7 7.8 93 0.5 N 9 11 5 6 1007.2 - 3.8
01/03:00am 8.6 6.7 7.5 93 0.5 N 7 9 4 5 1007.2 1007.2 3.8
01/02:30am 8.5 7.9 7.3 92 0.6 CALM 0 0 0 0 1007.4 - 3.8
01/02:00am 9.5 9.1 8.1 91 0.7 CALM 0 0 0 0 1008.0 - 3.8
01/01:30am 10.4 8.9 9.0 91 0.7 NNE 7 11 4 6 1008.8 - 3.6
01/01:00am 11.3 9.2 9.7 90 0.8 ENE 11 15 6 8 1009.2 - 3.6
01/12:30am 10.9 8.5 8.8 87 1.0 W 11 15 6 8 1010.6 - 3.6
01/12:02am 12.7 8.1 9.7 82 1.5 W 24 85 13 46 1011.7 - 0.4
01/12:00am 12.9 1.9 10.4 85 1.3 W 59 85 32 46 1011.7 1011.7 0.0
 
Date/Time
WST
Temp
°C
App
Temp
°C
Dew
Point
Rel
Hum
%
Delta-T
°C
Wind Press
QNH
hPa
Press
MSL
hPa
Rain
since 9 am
mm
Dir
 
Spd
km/h
Gust
km/h
Spd
kts
Gust
kts
31/11:58pm 11.9 6.6 10.0 88 1.0 W 28 82 15 44 1009.9 - 0.0
31/11:30pm 11.4 6.9 10.0 91 0.7 NNE 24 30 13 16 1008.4 - 0.0
31/11:00pm 11.2 8.0 9.9 92 0.7 NE 17 22 9 12 1009.1 - 0.0
31/10:30pm 11.3 8.1 9.9 91 0.7 NE 17 22 9 12 1009.9 - 0.0
31/10:00pm 11.7 8.5 10.1 90 0.8 NE 17 22 9 12 1010.6 - 0.0
31/09:30pm 12.1 9.1 10.5 90 0.8 NE 17 22 9 12 1011.2 - 0.0
31/09:00pm 12.6 9.3 11.0 90 0.8 NE 19 26 10 14 1011.7 1011.7 0.0
31/08:30pm 13.7 9.8 12.1 90 0.9 ENE 24 30 13 16 1011.9 - 0.0
31/08:00pm 12.7 10.2 10.9 89 0.9 NE 15 20 8 11 1012.8 - 0.0
31/07:30pm 12.7 10.1 10.6 87 1.1 NE 15 17 8 9 1013.4 - 0.0
31/07:00pm 13.2 11.0 10.7 85 1.3 NE 13 17 7 9 1013.6 - 0.0
31/06:30pm 14.3 10.6 11.6 84 1.4 E 22 26 12 14 1013.6 - 0.0
31/06:00pm 14.4 11.3 11.6 83 1.5 E 19 20 10 11 1014.0 1014.0 0.0
31/05:30pm 14.4 11.6 11.2 81 1.7 E 17 19 9 10 1014.1 - 0.0
31/05:00pm 14.6 11.2 10.6 77 2.1 E 19 20 10 11 1014.1 - 0.0
31/04:30pm 15.3 12.0 10.9 75 2.3 E 19 20 10 11 1013.9 - 0.0
31/04:00pm 15.4 12.5 11.0 75 2.3 E 17 20 9 11 1014.0 - 0.0
31/03:30pm 15.4 13.1 10.6 73 2.5 ESE 13 15 7 8 1014.2 - 0.0
31/03:00pm 15.9 13.8 11.3 74 2.5 SE 13 15 7 8 1014.4 1014.4 0.0
31/02:30pm 16.3 14.3 11.5 73 2.6 SSE 13 15 7 8 1014.9 - 0.0
31/02:00pm 16.4 14.3 11.1 71 2.8 S 13 15 7 8 1015.3 - 0.0
31/01:30pm 16.8 13.6 11.3 70 3.0 S 19 20 10 11 1015.6 - 0.0
31/01:00pm 17.1 14.1 11.8 71 2.9 S 19 20 10 11 1016.0 - 0.0
31/12:30pm 17.1 14.0 11.6 70 3.0 S 19 22 10 12 1016.4 - 0.0
31/12:00pm 17.2 15.0 12.1 72 2.8 S 15 19 8 10 1016.9 1016.9 0.0
31/11:30am 16.9 14.6 11.8 72 2.8 S 15 20 8 11 1017.4 - 0.0
31/11:00am 16.1 13.6 12.3 78 2.1 S 17 20 9 11 1017.6 - 0.0
31/10:30am 16.1 14.0 12.3 78 2.1 S 15 19 8 10 1018.4 - 0.0
31/10:00am 16.9 15.4 13.0 78 2.2 S 13 17 7 9 1018.8 - 0.0
31/09:30am 16.2 15.3 12.6 79 2.0 S 9 11 5 6 1019.0 - 0.0
31/09:00am 15.9 14.2 12.5 80 1.9 S 13 15 7 8 1019.3 1019.3 0.0
31/08:30am 15.9 15.4 12.5 80 1.9 SSE 7 9 4 5 1019.4 - 0.0
31/08:00am 15.2 13.6 12.7 85 1.4 SE 13 15 7 8 1018.7 - 0.0
31/07:30am 15.1 14.0 13.0 87 1.2 S 11 15 6 8 1018.9 - 0.0
31/07:00am 14.5 13.3 12.7 89 1.0 S 11 13 6 7 1018.6 - 0.0
31/06:30am 14.0 13.0 12.2 89 1.0 S 9 11 5 6 1018.6 - 0.0
31/06:00am 13.7 12.2 11.9 89 1.0 S 11 15 6 8 1018.5 1018.5 0.0
31/05:30am 13.4 12.5 11.3 87 1.1 S 7 11 4 6 1018.6 - 0.0
31/05:00am 13.9 12.0 11.8 87 1.1 S 13 15 7 8 1018.3 - 0.0
31/04:30am 14.2 11.9 11.9 86 1.2 S 15 19 8 10 1018.3 - 0.0
31/04:00am 14.1 11.8 11.8 86 1.2 S 15 19 8 10 1018.5 - 0.0
31/03:30am 14.3 11.1 11.8 85 1.3 S 20 26 11 14 1018.2 - 0.0
31/03:00am 14.6 11.5 12.1 85 1.4 S 20 24 11 13 1018.3 1018.3 0.0
31/02:30am 14.5 10.6 12.2 86 1.2 S 24 30 13 16 1018.5 - 0.0
31/02:00am 14.5 11.5 12.4 87 1.1 S 20 26 11 14 1018.5 - 0.0
31/01:30am 14.5 11.7 12.5 88 1.1 SSW 19 24 10 13 1018.9 - 0.0
31/01:00am 14.2 11.7 12.2 88 1.1 SSW 17 24 9 13 1018.9 - 0.0
31/12:30am 14.3 11.4 12.3 88 1.1 SSW 19 24 10 13 1019.0 - 0.0
31/12:00am 14.4 11.5 12.3 87 1.1 SSW 19 26 10 14 1019.1 1019.1 0.0
 
Date/Time
WST
Temp
°C
App
Temp
°C
Dew
Point
Rel
Hum
%
Delta-T
°C
Wind Press
QNH
hPa
Press
MSL
hPa
Rain
since 9 am
mm
Dir
 
Spd
km/h
Gust
km/h
Spd
kts
Gust
kts
30/11:30pm 14.4 10.9 12.3 87 1.1 SSW 22 30 12 16 1018.7 - 0.0
30/11:00pm 14.5 11.6 12.4 87 1.1 SSW 19 26 10 14 1018.8 - 0.0
30/10:30pm 14.4 11.9 12.4 88 1.1 SSW 17 22 9 12 1018.8 - 0.0
30/10:00pm 14.6 12.6 12.6 88 1.1 SSW 15 20 8 11 1018.9 - 0.0
30/09:30pm 14.8 12.0 12.7 87 1.2 SSW 19 26 10 14 1018.9 - 0.0
30/09:00pm 14.8 12.3 12.3 85 1.4 SSW 17 22 9 12 1018.9 1018.9 0.0
30/08:30pm 15.0 12.1 12.3 84 1.5 SSW 19 22 10 12 1018.8 - 0.0
30/08:00pm 15.2 11.8 12.5 84 1.5 SSW 22 32 12 17 1018.5 - 0.0
30/07:30pm 15.4 11.6 12.5 83 1.6 SSW 24 35 13 19 1018.1 - 0.0
30/07:00pm 15.4 12.1 12.9 85 1.4 SSW 22 32 12 17 1017.8 - 0.0
30/06:30pm 15.4 12.6 13.2 87 1.2 SW 20 30 11 16 1017.6 - 0.0
30/06:00pm 15.6 13.0 13.3 86 1.3 WSW 19 26 10 14 1017.2 1017.2 0.0
30/05:30pm 15.8 12.6 13.1 84 1.5 WSW 22 32 12 17 1016.7 - 0.0
30/05:00pm 16.0 13.1 12.4 79 2.0 WSW 19 26 10 14 1016.2 - 0.0
30/04:30pm 17.0 13.9 12.1 73 2.7 WSW 20 30 11 16 1015.7 - 0.0

Other Formats:

Comma delimited format used in spreadsheet applications
http://www.bom.gov.au/fwo/IDW60801/IDW60801.94644.axf

JavaScript Object Notation format (JSON) in row-major order
http://www.bom.gov.au/fwo/IDW60801/IDW60801.94644.json